sensor_id;sensor_type;location;lat;lon;timestamp;P1;durP1;ratioP1;P2;durP2;ratioP2
86271;SDS011;76930;50.692;16.628;2024-02-28T00:02:08;55.70;;;24.80;;
86271;SDS011;76930;50.692;16.628;2024-02-28T00:05:31;62.10;;;24.60;;
86271;SDS011;76930;50.692;16.628;2024-02-28T00:08:40;59.40;;;25.40;;
86271;SDS011;76930;50.692;16.628;2024-02-28T00:11:50;62.90;;;24.80;;
86271;SDS011;76930;50.692;16.628;2024-02-28T00:15:00;54.40;;;23.10;;
86271;SDS011;76930;50.692;16.628;2024-02-28T00:18:19;56.50;;;24.00;;
86271;SDS011;76930;50.692;16.628;2024-02-28T00:21:31;54.30;;;23.50;;
86271;SDS011;76930;50.692;16.628;2024-02-28T00:24:41;55.80;;;23.50;;
86271;SDS011;76930;50.692;16.628;2024-02-28T00:27:51;54.00;;;22.50;;
86271;SDS011;76930;50.692;16.628;2024-02-28T00:30:54;60.70;;;25.90;;
86271;SDS011;76930;50.692;16.628;2024-02-28T00:34:27;54.00;;;25.30;;
86271;SDS011;76930;50.692;16.628;2024-02-28T00:37:37;51.30;;;21.90;;
86271;SDS011;76930;50.692;16.628;2024-02-28T00:40:14;51.10;;;22.90;;
86271;SDS011;76930;50.692;16.628;2024-02-28T00:43:09;55.30;;;25.10;;
86271;SDS011;76930;50.692;16.628;2024-02-28T00:46:04;46.80;;;22.00;;
86271;SDS011;76930;50.692;16.628;2024-02-28T00:48:44;48.50;;;22.60;;
86271;SDS011;76930;50.692;16.628;2024-02-28T00:51:57;50.80;;;22.50;;
86271;SDS011;76930;50.692;16.628;2024-02-28T00:54:32;49.10;;;23.10;;
86271;SDS011;76930;50.692;16.628;2024-02-28T00:58:10;48.30;;;22.00;;
86271;SDS011;76930;50.692;16.628;2024-02-28T01:01:39;46.50;;;21.10;;
86271;SDS011;76930;50.692;16.628;2024-02-28T01:05:00;47.80;;;21.50;;
86271;SDS011;76930;50.692;16.628;2024-02-28T01:07:51;44.70;;;21.40;;
86271;SDS011;76930;50.692;16.628;2024-02-28T01:10:27;51.20;;;22.70;;
86271;SDS011;76930;50.692;16.628;2024-02-28T01:13:55;52.70;;;22.80;;
86271;SDS011;76930;50.692;16.628;2024-02-28T01:17:06;46.80;;;20.20;;
86271;SDS011;76930;50.692;16.628;2024-02-28T01:20:18;48.70;;;21.50;;
86271;SDS011;76930;50.692;16.628;2024-02-28T01:23:46;48.90;;;21.60;;
86271;SDS011;76930;50.692;16.628;2024-02-28T01:27:03;47.30;;;20.80;;
86271;SDS011;76930;50.692;16.628;2024-02-28T01:29:52;48.40;;;21.60;;
86271;SDS011;76930;50.692;16.628;2024-02-28T01:32:46;54.50;;;23.60;;
86271;SDS011;76930;50.692;16.628;2024-02-28T01:35:55;45.00;;;19.90;;
86271;SDS011;76930;50.692;16.628;2024-02-28T01:39:15;50.30;;;21.90;;
86271;SDS011;76930;50.692;16.628;2024-02-28T01:42:31;52.50;;;22.40;;
86271;SDS011;76930;50.692;16.628;2024-02-28T01:46:04;49.70;;;21.90;;
86271;SDS011;76930;50.692;16.628;2024-02-28T01:48:55;58.70;;;23.80;;
86271;SDS011;76930;50.692;16.628;2024-02-28T01:52:02;56.00;;;24.30;;
86271;SDS011;76930;50.692;16.628;2024-02-28T01:55:04;56.70;;;22.10;;
86271;SDS011;76930;50.692;16.628;2024-02-28T01:58:54;54.00;;;22.80;;
86271;SDS011;76930;50.692;16.628;2024-02-28T02:02:03;50.30;;;20.80;;
86271;SDS011;76930;50.692;16.628;2024-02-28T02:04:37;52.70;;;22.50;;
86271;SDS011;76930;50.692;16.628;2024-02-28T02:08:28;62.90;;;24.60;;
86271;SDS011;76930;50.692;16.628;2024-02-28T02:11:58;56.20;;;24.30;;
86271;SDS011;76930;50.692;16.628;2024-02-28T02:15:45;53.70;;;24.10;;
86271;SDS011;76930;50.692;16.628;2024-02-28T02:19:37;51.70;;;20.90;;
86271;SDS011;76930;50.692;16.628;2024-02-28T02:22:50;48.70;;;19.50;;
86271;SDS011;76930;50.692;16.628;2024-02-28T02:26:20;53.50;;;22.30;;
86271;SDS011;76930;50.692;16.628;2024-02-28T02:29:19;57.90;;;24.80;;
86271;SDS011;76930;50.692;16.628;2024-02-28T02:32:27;50.10;;;21.20;;
86271;SDS011;76930;50.692;16.628;2024-02-28T02:35:26;47.10;;;20.80;;
86271;SDS011;76930;50.692;16.628;2024-02-28T02:39:14;46.90;;;19.40;;
86271;SDS011;76930;50.692;16.628;2024-02-28T02:42:40;46.80;;;20.90;;
86271;SDS011;76930;50.692;16.628;2024-02-28T02:45:31;48.70;;;21.80;;
86271;SDS011;76930;50.692;16.628;2024-02-28T02:48:39;48.50;;;23.30;;
86271;SDS011;76930;50.692;16.628;2024-02-28T02:51:49;39.50;;;19.10;;
86271;SDS011;76930;50.692;16.628;2024-02-28T02:54:57;44.40;;;20.60;;
86271;SDS011;76930;50.692;16.628;2024-02-28T02:57:46;40.00;;;18.70;;
86271;SDS011;76930;50.692;16.628;2024-02-28T03:01:26;42.80;;;19.60;;
86271;SDS011;76930;50.692;16.628;2024-02-28T03:04:50;42.00;;;18.00;;
86271;SDS011;76930;50.692;16.628;2024-02-28T03:07:39;46.30;;;22.10;;
86271;SDS011;76930;50.692;16.628;2024-02-28T03:10:51;45.00;;;22.30;;
86271;SDS011;76930;50.692;16.628;2024-02-28T03:14:02;38.90;;;18.90;;
86271;SDS011;76930;50.692;16.628;2024-02-28T03:16:53;40.10;;;17.80;;
86271;SDS011;76930;50.692;16.628;2024-02-28T03:20:15;36.80;;;18.00;;
86271;SDS011;76930;50.692;16.628;2024-02-28T03:23:42;41.00;;;17.70;;
86271;SDS011;76930;50.692;16.628;2024-02-28T03:27:11;41.10;;;19.10;;
86271;SDS011;76930;50.692;16.628;2024-02-28T03:30:29;43.10;;;19.90;;
86271;SDS011;76930;50.692;16.628;2024-02-28T03:33:27;43.80;;;20.50;;
86271;SDS011;76930;50.692;16.628;2024-02-28T03:36:36;40.80;;;19.20;;
86271;SDS011;76930;50.692;16.628;2024-02-28T03:39:44;41.90;;;19.90;;
86271;SDS011;76930;50.692;16.628;2024-02-28T03:43:05;44.30;;;20.20;;
86271;SDS011;76930;50.692;16.628;2024-02-28T03:46:35;40.90;;;20.10;;
86271;SDS011;76930;50.692;16.628;2024-02-28T03:49:31;42.90;;;19.00;;
86271;SDS011;76930;50.692;16.628;2024-02-28T03:52:08;49.30;;;22.60;;
86271;SDS011;76930;50.692;16.628;2024-02-28T03:55:32;46.80;;;20.90;;
86271;SDS011;76930;50.692;16.628;2024-02-28T03:58:41;48.10;;;21.30;;
86271;SDS011;76930;50.692;16.628;2024-02-28T04:02:26;41.00;;;19.00;;
86271;SDS011;76930;50.692;16.628;2024-02-28T04:05:36;44.80;;;21.80;;
86271;SDS011;76930;50.692;16.628;2024-02-28T04:08:09;44.40;;;21.80;;
86271;SDS011;76930;50.692;16.628;2024-02-28T04:11:39;47.20;;;22.00;;
86271;SDS011;76930;50.692;16.628;2024-02-28T04:14:29;49.10;;;22.30;;
86271;SDS011;76930;50.692;16.628;2024-02-28T04:17:42;44.30;;;20.10;;
86271;SDS011;76930;50.692;16.628;2024-02-28T04:21:07;41.30;;;18.00;;
86271;SDS011;76930;50.692;16.628;2024-02-28T04:24:07;44.40;;;19.10;;
86271;SDS011;76930;50.692;16.628;2024-02-28T04:27:34;46.10;;;20.10;;
86271;SDS011;76930;50.692;16.628;2024-02-28T04:31:20;42.50;;;18.90;;
86271;SDS011;76930;50.692;16.628;2024-02-28T04:34:51;39.50;;;17.70;;
86271;SDS011;76930;50.692;16.628;2024-02-28T04:38:40;40.70;;;18.70;;
86271;SDS011;76930;50.692;16.628;2024-02-28T04:42:34;33.90;;;15.30;;
86271;SDS011;76930;50.692;16.628;2024-02-28T04:46:02;43.20;;;16.80;;
86271;SDS011;76930;50.692;16.628;2024-02-28T04:49:24;37.40;;;15.20;;
86271;SDS011;76930;50.692;16.628;2024-02-28T04:52:54;42.60;;;18.10;;
86271;SDS011;76930;50.692;16.628;2024-02-28T04:56:04;39.20;;;17.30;;
86271;SDS011;76930;50.692;16.628;2024-02-28T04:59:20;35.50;;;14.80;;
86271;SDS011;76930;50.692;16.628;2024-02-28T05:03:08;37.60;;;15.50;;
86271;SDS011;76930;50.692;16.628;2024-02-28T05:05:42;33.60;;;14.20;;
86271;SDS011;76930;50.692;16.628;2024-02-28T05:08:59;32.40;;;14.20;;
86271;SDS011;76930;50.692;16.628;2024-02-28T05:12:09;36.80;;;16.10;;
86271;SDS011;76930;50.692;16.628;2024-02-28T05:15:02;38.30;;;15.80;;
86271;SDS011;76930;50.692;16.628;2024-02-28T05:21:45;31.40;;;14.10;;
86271;SDS011;76930;50.692;16.628;2024-02-28T05:24:34;31.70;;;14.00;;
86271;SDS011;76930;50.692;16.628;2024-02-28T05:27:32;30.90;;;13.30;;
86271;SDS011;76930;50.692;16.628;2024-02-28T05:30:30;30.60;;;12.70;;
86271;SDS011;76930;50.692;16.628;2024-02-28T05:33:41;29.90;;;12.20;;
86271;SDS011;76930;50.692;16.628;2024-02-28T05:36:59;25.30;;;11.50;;
86271;SDS011;76930;50.692;16.628;2024-02-28T05:40:16;23.10;;;11.70;;
86271;SDS011;76930;50.692;16.628;2024-02-28T05:43:25;25.90;;;12.40;;
86271;SDS011;76930;50.692;16.628;2024-02-28T05:46:10;23.20;;;11.20;;
86271;SDS011;76930;50.692;16.628;2024-02-28T05:49:00;22.50;;;13.10;;
86271;SDS011;76930;50.692;16.628;2024-02-28T05:52:16;23.20;;;12.60;;
86271;SDS011;76930;50.692;16.628;2024-02-28T05:55:07;21.30;;;11.50;;
86271;SDS011;76930;50.692;16.628;2024-02-28T05:57:58;22.20;;;10.60;;
86271;SDS011;76930;50.692;16.628;2024-02-28T06:01:27;21.80;;;11.50;;
86271;SDS011;76930;50.692;16.628;2024-02-28T06:04:17;22.50;;;11.00;;
86271;SDS011;76930;50.692;16.628;2024-02-28T06:07:28;22.10;;;11.30;;
86271;SDS011;76930;50.692;16.628;2024-02-28T06:10:18;25.50;;;12.90;;
86271;SDS011;76930;50.692;16.628;2024-02-28T06:13:16;23.80;;;12.20;;
86271;SDS011;76930;50.692;16.628;2024-02-28T06:16:39;25.30;;;12.40;;
86271;SDS011;76930;50.692;16.628;2024-02-28T06:19:30;29.30;;;13.10;;
86271;SDS011;76930;50.692;16.628;2024-02-28T06:22:32;26.00;;;13.20;;
86271;SDS011;76930;50.692;16.628;2024-02-28T06:25:43;32.10;;;14.80;;
86271;SDS011;76930;50.692;16.628;2024-02-28T06:29:12;30.00;;;15.40;;
86271;SDS011;76930;50.692;16.628;2024-02-28T06:32:08;32.20;;;16.00;;
86271;SDS011;76930;50.692;16.628;2024-02-28T06:35:20;34.70;;;14.40;;
86271;SDS011;76930;50.692;16.628;2024-02-28T06:38:29;37.30;;;16.10;;
86271;SDS011;76930;50.692;16.628;2024-02-28T06:42:01;46.50;;;20.00;;
86271;SDS011;76930;50.692;16.628;2024-02-28T06:44:58;28.50;;;14.50;;
86271;SDS011;76930;50.692;16.628;2024-02-28T06:47:27;46.30;;;23.40;;
86271;SDS011;76930;50.692;16.628;2024-02-28T06:49:58;30.70;;;17.10;;
86271;SDS011;76930;50.692;16.628;2024-02-28T06:53:26;30.20;;;16.70;;
86271;SDS011;76930;50.692;16.628;2024-02-28T06:56:45;21.60;;;11.90;;
86271;SDS011;76930;50.692;16.628;2024-02-28T06:59:45;21.40;;;12.20;;
86271;SDS011;76930;50.692;16.628;2024-02-28T07:02:34;23.90;;;12.90;;
86271;SDS011;76930;50.692;16.628;2024-02-28T07:06:04;24.20;;;12.50;;
86271;SDS011;76930;50.692;16.628;2024-02-28T07:09:17;21.10;;;12.00;;
86271;SDS011;76930;50.692;16.628;2024-02-28T07:12:13;26.80;;;12.60;;
86271;SDS011;76930;50.692;16.628;2024-02-28T07:15:42;25.20;;;11.60;;
86271;SDS011;76930;50.692;16.628;2024-02-28T07:18:44;26.80;;;11.60;;
86271;SDS011;76930;50.692;16.628;2024-02-28T07:21:52;23.70;;;12.20;;
86271;SDS011;76930;50.692;16.628;2024-02-28T07:25:23;23.30;;;11.10;;
86271;SDS011;76930;50.692;16.628;2024-02-28T07:28:32;20.90;;;12.10;;
86271;SDS011;76930;50.692;16.628;2024-02-28T07:32:02;22.70;;;11.50;;
86271;SDS011;76930;50.692;16.628;2024-02-28T07:35:31;24.40;;;11.20;;
86271;SDS011;76930;50.692;16.628;2024-02-28T07:38:32;15.40;;;9.80;;
86271;SDS011;76930;50.692;16.628;2024-02-28T07:41:49;17.10;;;9.50;;
86271;SDS011;76930;50.692;16.628;2024-02-28T07:45:07;19.80;;;9.40;;
86271;SDS011;76930;50.692;16.628;2024-02-28T07:48:43;15.30;;;9.50;;
86271;SDS011;76930;50.692;16.628;2024-02-28T07:52:11;16.30;;;9.50;;
86271;SDS011;76930;50.692;16.628;2024-02-28T07:55:07;15.70;;;10.20;;
86271;SDS011;76930;50.692;16.628;2024-02-28T07:58:46;16.60;;;9.40;;
86271;SDS011;76930;50.692;16.628;2024-02-28T08:02:16;18.60;;;10.00;;
86271;SDS011;76930;50.692;16.628;2024-02-28T08:06:04;16.60;;;9.40;;
86271;SDS011;76930;50.692;16.628;2024-02-28T08:09:18;17.00;;;10.70;;
86271;SDS011;76930;50.692;16.628;2024-02-28T08:12:16;15.30;;;8.80;;
86271;SDS011;76930;50.692;16.628;2024-02-28T08:15:46;16.90;;;9.20;;
86271;SDS011;76930;50.692;16.628;2024-02-28T08:19:00;14.90;;;8.70;;
86271;SDS011;76930;50.692;16.628;2024-02-28T08:22:12;19.50;;;9.30;;
86271;SDS011;76930;50.692;16.628;2024-02-28T08:25:30;14.70;;;8.20;;
86271;SDS011;76930;50.692;16.628;2024-02-28T08:29:07;20.90;;;10.80;;
86271;SDS011;76930;50.692;16.628;2024-02-28T08:32:17;24.10;;;12.70;;
86271;SDS011;76930;50.692;16.628;2024-02-28T08:35:49;17.70;;;10.10;;
86271;SDS011;76930;50.692;16.628;2024-02-28T08:38:50;12.90;;;7.80;;
86271;SDS011;76930;50.692;16.628;2024-02-28T08:42:02;11.30;;;7.30;;
86271;SDS011;76930;50.692;16.628;2024-02-28T08:45:09;10.80;;;6.40;;
86271;SDS011;76930;50.692;16.628;2024-02-28T08:48:09;11.10;;;6.90;;
86271;SDS011;76930;50.692;16.628;2024-02-28T08:51:42;11.70;;;7.10;;
86271;SDS011;76930;50.692;16.628;2024-02-28T08:55:02;10.50;;;6.40;;
86271;SDS011;76930;50.692;16.628;2024-02-28T08:58:12;11.70;;;5.80;;
86271;SDS011;76930;50.692;16.628;2024-02-28T09:01:09;8.50;;;5.30;;
86271;SDS011;76930;50.692;16.628;2024-02-28T09:04:17;10.00;;;5.70;;
86271;SDS011;76930;50.692;16.628;2024-02-28T09:07:34;7.70;;;5.40;;
86271;SDS011;76930;50.692;16.628;2024-02-28T09:11:12;11.40;;;6.00;;
86271;SDS011;76930;50.692;16.628;2024-02-28T09:14:22;8.30;;;5.20;;
86271;SDS011;76930;50.692;16.628;2024-02-28T09:17:10;12.20;;;7.10;;
86271;SDS011;76930;50.692;16.628;2024-02-28T09:20:20;9.70;;;6.40;;
86271;SDS011;76930;50.692;16.628;2024-02-28T09:23:19;9.80;;;5.80;;
86271;SDS011;76930;50.692;16.628;2024-02-28T09:26:19;7.50;;;5.20;;
86271;SDS011;76930;50.692;16.628;2024-02-28T09:29:26;9.60;;;6.30;;
86271;SDS011;76930;50.692;16.628;2024-02-28T09:32:24;8.70;;;5.70;;
86271;SDS011;76930;50.692;16.628;2024-02-28T09:35:22;10.30;;;6.30;;
86271;SDS011;76930;50.692;16.628;2024-02-28T09:38:23;5.70;;;4.10;;
86271;SDS011;76930;50.692;16.628;2024-02-28T09:41:32;9.40;;;5.30;;
86271;SDS011;76930;50.692;16.628;2024-02-28T09:44:27;6.20;;;4.20;;
86271;SDS011;76930;50.692;16.628;2024-02-28T09:47:59;6.30;;;4.40;;
86271;SDS011;76930;50.692;16.628;2024-02-28T09:51:06;5.30;;;3.80;;
86271;SDS011;76930;50.692;16.628;2024-02-28T09:54:35;5.80;;;4.40;;
86271;SDS011;76930;50.692;16.628;2024-02-28T09:57:49;7.10;;;4.10;;
86271;SDS011;76930;50.692;16.628;2024-02-28T10:00:58;9.40;;;4.70;;
86271;SDS011;76930;50.692;16.628;2024-02-28T10:03:54;5.90;;;4.50;;
86271;SDS011;76930;50.692;16.628;2024-02-28T10:07:10;5.70;;;4.40;;
86271;SDS011;76930;50.692;16.628;2024-02-28T10:10:44;7.50;;;4.30;;
86271;SDS011;76930;50.692;16.628;2024-02-28T10:14:06;5.80;;;3.70;;
86271;SDS011;76930;50.692;16.628;2024-02-28T10:17:15;6.80;;;3.90;;
86271;SDS011;76930;50.692;16.628;2024-02-28T10:20:47;6.80;;;4.20;;
86271;SDS011;76930;50.692;16.628;2024-02-28T10:23:36;7.10;;;4.20;;
86271;SDS011;76930;50.692;16.628;2024-02-28T10:26:45;6.80;;;4.50;;
86271;SDS011;76930;50.692;16.628;2024-02-28T10:30:04;6.70;;;3.60;;
86271;SDS011;76930;50.692;16.628;2024-02-28T10:33:26;8.00;;;4.40;;
86271;SDS011;76930;50.692;16.628;2024-02-28T10:36:39;5.50;;;4.20;;
86271;SDS011;76930;50.692;16.628;2024-02-28T10:39:38;5.30;;;3.80;;
86271;SDS011;76930;50.692;16.628;2024-02-28T10:42:37;5.30;;;3.80;;
86271;SDS011;76930;50.692;16.628;2024-02-28T10:45:53;5.40;;;4.00;;
86271;SDS011;76930;50.692;16.628;2024-02-28T10:49:06;5.50;;;3.50;;
86271;SDS011;76930;50.692;16.628;2024-02-28T10:52:19;7.00;;;4.20;;
86271;SDS011;76930;50.692;16.628;2024-02-28T10:55:23;5.40;;;4.10;;
86271;SDS011;76930;50.692;16.628;2024-02-28T10:58:47;6.70;;;4.60;;
86271;SDS011;76930;50.692;16.628;2024-02-28T11:02:12;6.40;;;4.40;;
86271;SDS011;76930;50.692;16.628;2024-02-28T11:05:23;6.10;;;4.00;;
86271;SDS011;76930;50.692;16.628;2024-02-28T11:11:19;5.90;;;3.90;;
86271;SDS011;76930;50.692;16.628;2024-02-28T11:14:36;6.40;;;4.20;;
86271;SDS011;76930;50.692;16.628;2024-02-28T11:18:06;5.40;;;3.90;;
86271;SDS011;76930;50.692;16.628;2024-02-28T11:21:00;4.80;;;3.30;;
86271;SDS011;76930;50.692;16.628;2024-02-28T11:24:15;6.70;;;3.90;;
86271;SDS011;76930;50.692;16.628;2024-02-28T11:27:27;5.70;;;3.80;;
86271;SDS011;76930;50.692;16.628;2024-02-28T11:30:40;5.80;;;4.30;;
86271;SDS011;76930;50.692;16.628;2024-02-28T11:33:32;6.00;;;3.50;;
86271;SDS011;76930;50.692;16.628;2024-02-28T11:36:46;4.90;;;3.70;;
86271;SDS011;76930;50.692;16.628;2024-02-28T11:39:36;5.70;;;3.90;;
86271;SDS011;76930;50.692;16.628;2024-02-28T11:42:44;5.90;;;3.80;;
86271;SDS011;76930;50.692;16.628;2024-02-28T11:45:40;4.90;;;3.60;;
86271;SDS011;76930;50.692;16.628;2024-02-28T11:48:54;6.00;;;3.80;;
86271;SDS011;76930;50.692;16.628;2024-02-28T11:52:06;5.50;;;3.20;;
86271;SDS011;76930;50.692;16.628;2024-02-28T11:55:09;5.40;;;3.50;;
86271;SDS011;76930;50.692;16.628;2024-02-28T11:58:09;7.00;;;3.90;;
86271;SDS011;76930;50.692;16.628;2024-02-28T12:01:38;4.40;;;3.50;;
86271;SDS011;76930;50.692;16.628;2024-02-28T12:04:32;6.00;;;4.30;;
86271;SDS011;76930;50.692;16.628;2024-02-28T12:07:45;5.00;;;3.90;;
86271;SDS011;76930;50.692;16.628;2024-02-28T12:10:19;4.80;;;3.50;;
86271;SDS011;76930;50.692;16.628;2024-02-28T12:13:27;5.20;;;3.90;;
86271;SDS011;76930;50.692;16.628;2024-02-28T12:16:27;7.30;;;5.30;;
86271;SDS011;76930;50.692;16.628;2024-02-28T12:19:35;6.80;;;4.70;;
86271;SDS011;76930;50.692;16.628;2024-02-28T12:22:28;7.20;;;4.70;;
86271;SDS011;76930;50.692;16.628;2024-02-28T12:25:58;5.50;;;4.40;;
86271;SDS011;76930;50.692;16.628;2024-02-28T12:29:06;7.90;;;4.40;;
86271;SDS011;76930;50.692;16.628;2024-02-28T12:32:22;6.40;;;4.70;;
86271;SDS011;76930;50.692;16.628;2024-02-28T12:35:54;6.90;;;5.40;;
86271;SDS011;76930;50.692;16.628;2024-02-28T12:38:44;8.10;;;5.50;;
86271;SDS011;76930;50.692;16.628;2024-02-28T12:41:14;6.50;;;5.00;;
86271;SDS011;76930;50.692;16.628;2024-02-28T12:44:04;6.50;;;5.50;;
86271;SDS011;76930;50.692;16.628;2024-02-28T12:47:52;7.80;;;6.20;;
86271;SDS011;76930;50.692;16.628;2024-02-28T12:51:43;10.00;;;7.50;;
86271;SDS011;76930;50.692;16.628;2024-02-28T12:54:32;10.10;;;6.90;;
86271;SDS011;76930;50.692;16.628;2024-02-28T12:57:56;10.10;;;6.90;;
86271;SDS011;76930;50.692;16.628;2024-02-28T13:01:22;10.80;;;7.40;;
86271;SDS011;76930;50.692;16.628;2024-02-28T13:04:11;9.60;;;7.30;;
86271;SDS011;76930;50.692;16.628;2024-02-28T13:07:39;12.40;;;8.40;;
86271;SDS011;76930;50.692;16.628;2024-02-28T13:11:11;10.90;;;7.90;;
86271;SDS011;76930;50.692;16.628;2024-02-28T13:14:44;11.50;;;8.10;;
86271;SDS011;76930;50.692;16.628;2024-02-28T13:18:23;11.40;;;8.70;;
86271;SDS011;76930;50.692;16.628;2024-02-28T13:21:37;10.00;;;7.60;;
86271;SDS011;76930;50.692;16.628;2024-02-28T13:28:11;9.90;;;6.50;;
86271;SDS011;76930;50.692;16.628;2024-02-28T13:31:24;10.10;;;7.20;;
86271;SDS011;76930;50.692;16.628;2024-02-28T13:34:36;12.70;;;8.90;;
86271;SDS011;76930;50.692;16.628;2024-02-28T13:38:05;9.80;;;6.80;;
86271;SDS011;76930;50.692;16.628;2024-02-28T13:41:10;12.30;;;8.70;;
86271;SDS011;76930;50.692;16.628;2024-02-28T13:44:24;11.70;;;9.00;;
86271;SDS011;76930;50.692;16.628;2024-02-28T13:47:49;10.70;;;7.90;;
86271;SDS011;76930;50.692;16.628;2024-02-28T13:51:41;11.00;;;7.60;;
86271;SDS011;76930;50.692;16.628;2024-02-28T13:54:50;9.80;;;8.30;;
86271;SDS011;76930;50.692;16.628;2024-02-28T13:58:27;13.00;;;10.00;;
86271;SDS011;76930;50.692;16.628;2024-02-28T14:01:09;14.00;;;10.60;;
86271;SDS011;76930;50.692;16.628;2024-02-28T14:04:22;15.10;;;10.00;;
86271;SDS011;76930;50.692;16.628;2024-02-28T14:07:52;14.50;;;9.90;;
86271;SDS011;76930;50.692;16.628;2024-02-28T14:11:05;13.80;;;10.10;;
86271;SDS011;76930;50.692;16.628;2024-02-28T14:13:48;12.40;;;9.30;;
86271;SDS011;76930;50.692;16.628;2024-02-28T14:17:26;14.20;;;10.50;;
86271;SDS011;76930;50.692;16.628;2024-02-28T14:20:51;12.20;;;9.40;;
86271;SDS011;76930;50.692;16.628;2024-02-28T14:24:15;11.00;;;7.80;;
86271;SDS011;76930;50.692;16.628;2024-02-28T14:27:26;13.60;;;8.60;;
86271;SDS011;76930;50.692;16.628;2024-02-28T14:30:52;14.70;;;9.60;;
86271;SDS011;76930;50.692;16.628;2024-02-28T14:34:08;14.00;;;9.70;;
86271;SDS011;76930;50.692;16.628;2024-02-28T14:37:09;18.00;;;12.20;;
86271;SDS011;76930;50.692;16.628;2024-02-28T14:40:41;19.50;;;12.20;;
86271;SDS011;76930;50.692;16.628;2024-02-28T14:44:15;17.40;;;12.10;;
86271;SDS011;76930;50.692;16.628;2024-02-28T14:47:26;16.90;;;12.00;;
86271;SDS011;76930;50.692;16.628;2024-02-28T14:51:15;14.60;;;10.00;;
86271;SDS011;76930;50.692;16.628;2024-02-28T14:55:07;9.70;;;7.40;;
86271;SDS011;76930;50.692;16.628;2024-02-28T14:58:51;10.20;;;6.20;;
86271;SDS011;76930;50.692;16.628;2024-02-28T15:02:03;9.40;;;7.20;;
86271;SDS011;76930;50.692;16.628;2024-02-28T15:04:42;11.50;;;8.50;;
86271;SDS011;76930;50.692;16.628;2024-02-28T15:07:15;11.70;;;7.80;;
86271;SDS011;76930;50.692;16.628;2024-02-28T15:10:25;8.70;;;6.60;;
86271;SDS011;76930;50.692;16.628;2024-02-28T15:13:53;27.10;;;16.80;;
86271;SDS011;76930;50.692;16.628;2024-02-28T15:16:59;15.10;;;9.70;;
86271;SDS011;76930;50.692;16.628;2024-02-28T15:19:48;12.60;;;9.50;;
86271;SDS011;76930;50.692;16.628;2024-02-28T15:22:18;11.70;;;8.00;;
86271;SDS011;76930;50.692;16.628;2024-02-28T15:25:54;9.70;;;6.30;;
86271;SDS011;76930;50.692;16.628;2024-02-28T15:29:18;10.20;;;6.30;;
86271;SDS011;76930;50.692;16.628;2024-02-28T15:32:30;12.50;;;9.10;;
86271;SDS011;76930;50.692;16.628;2024-02-28T15:35:28;10.20;;;8.20;;
86271;SDS011;76930;50.692;16.628;2024-02-28T15:38:20;9.10;;;7.20;;
86271;SDS011;76930;50.692;16.628;2024-02-28T15:41:50;9.40;;;7.10;;
86271;SDS011;76930;50.692;16.628;2024-02-28T15:45:12;27.10;;;14.50;;
86271;SDS011;76930;50.692;16.628;2024-02-28T15:48:22;11.00;;;6.80;;
86271;SDS011;76930;50.692;16.628;2024-02-28T15:51:54;9.70;;;6.90;;
86271;SDS011;76930;50.692;16.628;2024-02-28T15:54:46;11.50;;;9.10;;
86271;SDS011;76930;50.692;16.628;2024-02-28T15:58:17;9.00;;;7.30;;
86271;SDS011;76930;50.692;16.628;2024-02-28T16:01:17;11.50;;;7.50;;
86271;SDS011;76930;50.692;16.628;2024-02-28T16:04:40;10.40;;;8.20;;
86271;SDS011;76930;50.692;16.628;2024-02-28T16:07:17;10.50;;;8.90;;
86271;SDS011;76930;50.692;16.628;2024-02-28T16:10:42;13.60;;;8.70;;
86271;SDS011;76930;50.692;16.628;2024-02-28T16:14:33;16.50;;;10.40;;
86271;SDS011;76930;50.692;16.628;2024-02-28T16:17:57;15.10;;;8.70;;
86271;SDS011;76930;50.692;16.628;2024-02-28T16:21:06;11.30;;;8.30;;
86271;SDS011;76930;50.692;16.628;2024-02-28T16:24:57;10.50;;;7.60;;
86271;SDS011;76930;50.692;16.628;2024-02-28T16:28:27;11.70;;;8.10;;
86271;SDS011;76930;50.692;16.628;2024-02-28T16:31:37;12.10;;;8.70;;
86271;SDS011;76930;50.692;16.628;2024-02-28T16:35:01;13.40;;;7.50;;
86271;SDS011;76930;50.692;16.628;2024-02-28T16:37:55;19.90;;;13.30;;
86271;SDS011;76930;50.692;16.628;2024-02-28T16:41:20;15.30;;;11.90;;
86271;SDS011;76930;50.692;16.628;2024-02-28T16:44:45;15.60;;;9.90;;
86271;SDS011;76930;50.692;16.628;2024-02-28T16:47:57;19.40;;;13.60;;
86271;SDS011;76930;50.692;16.628;2024-02-28T16:50:52;30.10;;;17.10;;
86271;SDS011;76930;50.692;16.628;2024-02-28T16:54:04;53.50;;;30.80;;
86271;SDS011;76930;50.692;16.628;2024-02-28T16:56:33;44.90;;;25.60;;
86271;SDS011;76930;50.692;16.628;2024-02-28T16:59:50;29.60;;;20.30;;
86271;SDS011;76930;50.692;16.628;2024-02-28T17:02:23;30.80;;;19.90;;
86271;SDS011;76930;50.692;16.628;2024-02-28T17:04:57;27.10;;;16.40;;
86271;SDS011;76930;50.692;16.628;2024-02-28T17:07:31;25.60;;;15.00;;
86271;SDS011;76930;50.692;16.628;2024-02-28T17:10:30;26.40;;;16.60;;
86271;SDS011;76930;50.692;16.628;2024-02-28T17:13:57;34.00;;;20.60;;
86271;SDS011;76930;50.692;16.628;2024-02-28T17:16:31;23.80;;;15.30;;
86271;SDS011;76930;50.692;16.628;2024-02-28T17:20:15;25.60;;;14.70;;
86271;SDS011;76930;50.692;16.628;2024-02-28T17:23:27;27.00;;;15.00;;
86271;SDS011;76930;50.692;16.628;2024-02-28T17:26:24;39.00;;;18.80;;
86271;SDS011;76930;50.692;16.628;2024-02-28T17:29:31;37.20;;;16.90;;
86271;SDS011;76930;50.692;16.628;2024-02-28T17:33:06;25.50;;;15.30;;
86271;SDS011;76930;50.692;16.628;2024-02-28T17:36:08;26.10;;;15.30;;
86271;SDS011;76930;50.692;16.628;2024-02-28T17:39:15;18.60;;;11.90;;
86271;SDS011;76930;50.692;16.628;2024-02-28T17:42:09;21.70;;;14.00;;
86271;SDS011;76930;50.692;16.628;2024-02-28T17:45:39;19.90;;;13.90;;
86271;SDS011;76930;50.692;16.628;2024-02-28T17:52:12;25.20;;;15.00;;
86271;SDS011;76930;50.692;16.628;2024-02-28T17:55:32;25.70;;;15.80;;
86271;SDS011;76930;50.692;16.628;2024-02-28T17:59:02;26.60;;;17.40;;
86271;SDS011;76930;50.692;16.628;2024-02-28T18:02:55;18.90;;;12.30;;
86271;SDS011;76930;50.692;16.628;2024-02-28T18:05:44;21.60;;;15.60;;
86271;SDS011;76930;50.692;16.628;2024-02-28T18:08:34;23.40;;;15.20;;
86271;SDS011;76930;50.692;16.628;2024-02-28T18:11:31;35.60;;;21.10;;
86271;SDS011;76930;50.692;16.628;2024-02-28T18:15:07;67.90;;;28.20;;
86271;SDS011;76930;50.692;16.628;2024-02-28T18:18:37;67.30;;;26.60;;
86271;SDS011;76930;50.692;16.628;2024-02-28T18:22:06;59.80;;;23.60;;
86271;SDS011;76930;50.692;16.628;2024-02-28T18:25:23;60.90;;;27.20;;
86271;SDS011;76930;50.692;16.628;2024-02-28T18:28:32;64.20;;;28.90;;
86271;SDS011;76930;50.692;16.628;2024-02-28T18:32:08;44.70;;;21.00;;
86271;SDS011;76930;50.692;16.628;2024-02-28T18:35:57;43.30;;;23.70;;
86271;SDS011;76930;50.692;16.628;2024-02-28T18:39:09;32.80;;;20.20;;
86271;SDS011;76930;50.692;16.628;2024-02-28T18:42:38;39.90;;;21.20;;
86271;SDS011;76930;50.692;16.628;2024-02-28T18:45:52;29.10;;;17.00;;
86271;SDS011;76930;50.692;16.628;2024-02-28T18:49:21;37.60;;;19.70;;
86271;SDS011;76930;50.692;16.628;2024-02-28T18:52:41;40.80;;;22.00;;